sensor_id;sensor_type;location;lat;lon;timestamp;P1;durP1;ratioP1;P2;durP2;ratioP2
46290;SDS011;32023;44.444;26.006;2023-05-10T00:01:53;9.70;;;7.05;;
46290;SDS011;32023;44.444;26.006;2023-05-10T00:04:20;13.55;;;7.18;;
46290;SDS011;32023;44.444;26.006;2023-05-10T00:06:56;7.95;;;5.85;;
46290;SDS011;32023;44.444;26.006;2023-05-10T00:09:32;12.10;;;7.10;;
46290;SDS011;32023;44.444;26.006;2023-05-10T00:12:01;12.23;;;6.88;;
46290;SDS011;32023;44.444;26.006;2023-05-10T00:16:58;12.10;;;8.20;;
46290;SDS011;32023;44.444;26.006;2023-05-10T00:27:01;13.50;;;9.10;;
46290;SDS011;32023;44.444;26.006;2023-05-10T00:29:30;12.65;;;9.32;;
46290;SDS011;32023;44.444;26.006;2023-05-10T00:31:56;13.35;;;8.68;;
46290;SDS011;32023;44.444;26.006;2023-05-10T00:34:26;14.98;;;8.60;;
46290;SDS011;32023;44.444;26.006;2023-05-10T00:36:55;12.07;;;9.02;;
46290;SDS011;32023;44.444;26.006;2023-05-10T00:39:26;17.50;;;9.15;;
46290;SDS011;32023;44.444;26.006;2023-05-10T00:41:55;12.80;;;9.00;;
46290;SDS011;32023;44.444;26.006;2023-05-10T00:44:22;14.20;;;9.23;;
46290;SDS011;32023;44.444;26.006;2023-05-10T00:46:57;16.63;;;8.75;;
46290;SDS011;32023;44.444;26.006;2023-05-10T00:57:01;12.15;;;9.15;;
46290;SDS011;32023;44.444;26.006;2023-05-10T00:59:32;12.55;;;8.85;;
46290;SDS011;32023;44.444;26.006;2023-05-10T01:01:59;20.00;;;9.68;;
46290;SDS011;32023;44.444;26.006;2023-05-10T01:04:26;10.88;;;8.40;;
46290;SDS011;32023;44.444;26.006;2023-05-10T01:06:54;11.50;;;8.77;;
46290;SDS011;32023;44.444;26.006;2023-05-10T01:11:53;10.82;;;7.85;;
46290;SDS011;32023;44.444;26.006;2023-05-10T01:14:32;12.95;;;8.57;;
46290;SDS011;32023;44.444;26.006;2023-05-10T01:17:02;15.90;;;8.07;;
46290;SDS011;32023;44.444;26.006;2023-05-10T01:19:32;12.98;;;8.15;;
46290;SDS011;32023;44.444;26.006;2023-05-10T01:22:25;11.45;;;7.55;;
46290;SDS011;32023;44.444;26.006;2023-05-10T01:28:21;12.90;;;7.82;;
46290;SDS011;32023;44.444;26.006;2023-05-10T01:36:49;13.75;;;7.82;;
46290;SDS011;32023;44.444;26.006;2023-05-10T01:39:24;12.07;;;9.07;;
46290;SDS011;32023;44.444;26.006;2023-05-10T01:42:11;14.77;;;9.07;;
46290;SDS011;32023;44.444;26.006;2023-05-10T01:44:54;13.98;;;9.27;;
46290;SDS011;32023;44.444;26.006;2023-05-10T01:47:35;13.25;;;9.35;;
46290;SDS011;32023;44.444;26.006;2023-05-10T01:50:15;11.07;;;8.30;;
46290;SDS011;32023;44.444;26.006;2023-05-10T01:52:56;14.05;;;9.05;;
46290;SDS011;32023;44.444;26.006;2023-05-10T01:55:26;17.35;;;8.98;;
46290;SDS011;32023;44.444;26.006;2023-05-10T01:58:16;11.93;;;9.20;;
46290;SDS011;32023;44.444;26.006;2023-05-10T02:03:31;21.58;;;10.27;;
46290;SDS011;32023;44.444;26.006;2023-05-10T02:06:04;17.60;;;11.07;;
46290;SDS011;32023;44.444;26.006;2023-05-10T02:08:32;20.80;;;12.20;;
46290;SDS011;32023;44.444;26.006;2023-05-10T02:11:03;16.90;;;11.70;;
46290;SDS011;32023;44.444;26.006;2023-05-10T02:13:31;17.25;;;11.05;;
46290;SDS011;32023;44.444;26.006;2023-05-10T02:16:01;18.13;;;10.75;;
46290;SDS011;32023;44.444;26.006;2023-05-10T02:18:29;13.20;;;9.82;;
46290;SDS011;32023;44.444;26.006;2023-05-10T02:23:30;12.18;;;9.40;;
46290;SDS011;32023;44.444;26.006;2023-05-10T02:26:05;11.85;;;9.00;;
46290;SDS011;32023;44.444;26.006;2023-05-10T02:28:33;14.13;;;10.35;;
46290;SDS011;32023;44.444;26.006;2023-05-10T02:31:08;12.13;;;9.48;;
46290;SDS011;32023;44.444;26.006;2023-05-10T02:33:42;11.60;;;9.27;;
46290;SDS011;32023;44.444;26.006;2023-05-10T02:36:09;17.08;;;9.88;;
46290;SDS011;32023;44.444;26.006;2023-05-10T02:38:38;16.17;;;10.55;;
46290;SDS011;32023;44.444;26.006;2023-05-10T02:41:06;13.77;;;9.93;;
46290;SDS011;32023;44.444;26.006;2023-05-10T02:43:35;13.55;;;8.68;;
46290;SDS011;32023;44.444;26.006;2023-05-10T02:46:11;13.30;;;8.98;;
46290;SDS011;32023;44.444;26.006;2023-05-10T02:48:37;13.30;;;9.43;;
46290;SDS011;32023;44.444;26.006;2023-05-10T02:51:04;17.42;;;10.32;;
46290;SDS011;32023;44.444;26.006;2023-05-10T02:53:36;11.43;;;8.95;;
46290;SDS011;32023;44.444;26.006;2023-05-10T02:56:15;20.00;;;11.05;;
46290;SDS011;32023;44.444;26.006;2023-05-10T02:58:54;12.68;;;10.25;;
46290;SDS011;32023;44.444;26.006;2023-05-10T03:01:22;13.40;;;9.27;;
46290;SDS011;32023;44.444;26.006;2023-05-10T03:03:59;13.00;;;9.43;;
46290;SDS011;32023;44.444;26.006;2023-05-10T03:06:26;16.88;;;10.02;;
46290;SDS011;32023;44.444;26.006;2023-05-10T03:08:53;14.50;;;10.02;;
46290;SDS011;32023;44.444;26.006;2023-05-10T03:20:29;16.25;;;9.73;;
46290;SDS011;32023;44.444;26.006;2023-05-10T03:25:46;13.48;;;8.48;;
46290;SDS011;32023;44.444;26.006;2023-05-10T03:28:20;13.38;;;9.02;;
46290;SDS011;32023;44.444;26.006;2023-05-10T03:36:42;14.40;;;8.38;;
46290;SDS011;32023;44.444;26.006;2023-05-10T03:39:11;13.25;;;8.35;;
46290;SDS011;32023;44.444;26.006;2023-05-10T03:41:41;11.35;;;7.32;;
46290;SDS011;32023;44.444;26.006;2023-05-10T03:44:08;10.45;;;7.18;;
46290;SDS011;32023;44.444;26.006;2023-05-10T03:49:39;11.80;;;6.45;;
46290;SDS011;32023;44.444;26.006;2023-05-10T03:52:10;16.40;;;6.32;;
46290;SDS011;32023;44.444;26.006;2023-05-10T03:54:37;14.27;;;6.90;;
46290;SDS011;32023;44.444;26.006;2023-05-10T03:57:03;10.85;;;7.20;;
46290;SDS011;32023;44.444;26.006;2023-05-10T04:02:25;9.50;;;5.78;;
46290;SDS011;32023;44.444;26.006;2023-05-10T04:04:54;17.33;;;6.47;;
46290;SDS011;32023;44.444;26.006;2023-05-10T04:09:59;10.10;;;5.55;;
46290;SDS011;32023;44.444;26.006;2023-05-10T04:12:30;9.65;;;6.43;;
46290;SDS011;32023;44.444;26.006;2023-05-10T04:14:58;7.70;;;5.80;;
46290;SDS011;32023;44.444;26.006;2023-05-10T04:17:26;10.07;;;6.28;;
46290;SDS011;32023;44.444;26.006;2023-05-10T04:19:53;8.00;;;5.55;;
46290;SDS011;32023;44.444;26.006;2023-05-10T04:22:25;8.48;;;6.18;;
46290;SDS011;32023;44.444;26.006;2023-05-10T04:25:01;8.95;;;5.93;;
46290;SDS011;32023;44.444;26.006;2023-05-10T04:31:08;8.05;;;5.40;;
46290;SDS011;32023;44.444;26.006;2023-05-10T04:36:34;14.65;;;5.45;;
46290;SDS011;32023;44.444;26.006;2023-05-10T04:43:31;8.38;;;5.40;;
46290;SDS011;32023;44.444;26.006;2023-05-10T04:49:06;8.95;;;4.57;;
46290;SDS011;32023;44.444;26.006;2023-05-10T04:51:36;15.15;;;5.63;;
46290;SDS011;32023;44.444;26.006;2023-05-10T04:54:26;11.40;;;5.25;;
46290;SDS011;32023;44.444;26.006;2023-05-10T04:56:52;12.05;;;5.18;;
46290;SDS011;32023;44.444;26.006;2023-05-10T04:59:22;10.88;;;5.13;;
46290;SDS011;32023;44.444;26.006;2023-05-10T05:01:51;6.55;;;4.28;;
46290;SDS011;32023;44.444;26.006;2023-05-10T05:04:20;6.45;;;4.70;;
46290;SDS011;32023;44.444;26.006;2023-05-10T05:06:53;11.48;;;5.30;;
46290;SDS011;32023;44.444;26.006;2023-05-10T05:09:20;10.13;;;4.38;;
46290;SDS011;32023;44.444;26.006;2023-05-10T05:11:47;5.47;;;4.30;;
46290;SDS011;32023;44.444;26.006;2023-05-10T05:14:13;10.75;;;5.38;;
46290;SDS011;32023;44.444;26.006;2023-05-10T05:16:42;12.93;;;5.15;;
46290;SDS011;32023;44.444;26.006;2023-05-10T05:19:09;12.38;;;6.30;;
46290;SDS011;32023;44.444;26.006;2023-05-10T05:21:35;19.63;;;6.72;;
46290;SDS011;32023;44.444;26.006;2023-05-10T05:24:01;8.93;;;5.95;;
46290;SDS011;32023;44.444;26.006;2023-05-10T05:26:28;12.60;;;6.80;;
46290;SDS011;32023;44.444;26.006;2023-05-10T05:28:54;8.32;;;4.47;;
46290;SDS011;32023;44.444;26.006;2023-05-10T05:31:21;13.93;;;5.00;;
46290;SDS011;32023;44.444;26.006;2023-05-10T05:33:49;9.35;;;4.18;;
46290;SDS011;32023;44.444;26.006;2023-05-10T05:36:15;6.53;;;4.40;;
46290;SDS011;32023;44.444;26.006;2023-05-10T05:38:44;7.88;;;4.53;;
46290;SDS011;32023;44.444;26.006;2023-05-10T05:41:10;6.18;;;4.00;;
46290;SDS011;32023;44.444;26.006;2023-05-10T05:43:37;10.23;;;4.20;;
46290;SDS011;32023;44.444;26.006;2023-05-10T05:46:03;8.18;;;4.32;;
46290;SDS011;32023;44.444;26.006;2023-05-10T05:48:30;8.88;;;4.00;;
46290;SDS011;32023;44.444;26.006;2023-05-10T05:51:10;11.40;;;4.63;;
46290;SDS011;32023;44.444;26.006;2023-05-10T05:53:36;9.60;;;3.90;;
46290;SDS011;32023;44.444;26.006;2023-05-10T05:56:03;10.52;;;4.03;;
46290;SDS011;32023;44.444;26.006;2023-05-10T06:01:04;7.95;;;4.15;;
46290;SDS011;32023;44.444;26.006;2023-05-10T06:03:31;7.53;;;4.25;;
46290;SDS011;32023;44.444;26.006;2023-05-10T06:05:58;11.18;;;5.10;;
46290;SDS011;32023;44.444;26.006;2023-05-10T06:08:30;7.93;;;4.82;;
46290;SDS011;32023;44.444;26.006;2023-05-10T06:10:59;11.77;;;5.35;;
46290;SDS011;32023;44.444;26.006;2023-05-10T06:13:27;9.43;;;5.25;;
46290;SDS011;32023;44.444;26.006;2023-05-10T06:15:58;5.35;;;4.18;;
46290;SDS011;32023;44.444;26.006;2023-05-10T06:18:24;9.68;;;4.28;;
46290;SDS011;32023;44.444;26.006;2023-05-10T06:20:54;8.27;;;4.70;;
46290;SDS011;32023;44.444;26.006;2023-05-10T06:49:42;9.25;;;4.82;;
46290;SDS011;32023;44.444;26.006;2023-05-10T06:56:05;10.25;;;4.00;;
46290;SDS011;32023;44.444;26.006;2023-05-10T07:05:59;5.55;;;3.30;;
46290;SDS011;32023;44.444;26.006;2023-05-10T07:15:28;6.65;;;3.60;;
46290;SDS011;32023;44.444;26.006;2023-05-10T07:18:01;8.02;;;3.60;;
46290;SDS011;32023;44.444;26.006;2023-05-10T07:20:47;5.20;;;3.33;;
46290;SDS011;32023;44.444;26.006;2023-05-10T07:23:19;5.57;;;3.60;;
46290;SDS011;32023;44.444;26.006;2023-05-10T07:25:49;5.60;;;3.28;;
46290;SDS011;32023;44.444;26.006;2023-05-10T07:28:22;7.35;;;3.60;;
46290;SDS011;32023;44.444;26.006;2023-05-10T07:30:51;4.43;;;3.22;;
46290;SDS011;32023;44.444;26.006;2023-05-10T07:33:17;5.07;;;3.20;;
46290;SDS011;32023;44.444;26.006;2023-05-10T07:35:46;4.03;;;2.90;;
46290;SDS011;32023;44.444;26.006;2023-05-10T07:41:02;4.18;;;3.15;;
46290;SDS011;32023;44.444;26.006;2023-05-10T07:43:50;5.13;;;3.10;;
46290;SDS011;32023;44.444;26.006;2023-05-10T07:46:20;4.95;;;3.33;;
46290;SDS011;32023;44.444;26.006;2023-05-10T07:48:46;6.57;;;2.85;;
46290;SDS011;32023;44.444;26.006;2023-05-10T07:51:19;9.85;;;3.47;;
46290;SDS011;32023;44.444;26.006;2023-05-10T07:53:58;6.10;;;3.40;;
46290;SDS011;32023;44.444;26.006;2023-05-10T07:56:31;5.93;;;3.08;;
46290;SDS011;32023;44.444;26.006;2023-05-10T08:02:29;7.07;;;3.10;;
46290;SDS011;32023;44.444;26.006;2023-05-10T08:05:02;5.97;;;2.90;;
46290;SDS011;32023;44.444;26.006;2023-05-10T08:07:37;8.40;;;3.10;;
46290;SDS011;32023;44.444;26.006;2023-05-10T08:10:20;4.50;;;3.10;;
46290;SDS011;32023;44.444;26.006;2023-05-10T08:13:02;4.68;;;2.50;;
46290;SDS011;32023;44.444;26.006;2023-05-10T08:15:34;4.88;;;2.90;;
46290;SDS011;32023;44.444;26.006;2023-05-10T08:18:20;6.20;;;3.38;;
46290;SDS011;32023;44.444;26.006;2023-05-10T08:21:09;4.90;;;2.53;;
46290;SDS011;32023;44.444;26.006;2023-05-10T08:23:42;5.00;;;2.88;;
46290;SDS011;32023;44.444;26.006;2023-05-10T08:26:31;6.75;;;2.90;;
46290;SDS011;32023;44.444;26.006;2023-05-10T08:29:01;5.38;;;2.80;;
46290;SDS011;32023;44.444;26.006;2023-05-10T08:31:33;5.30;;;3.00;;
46290;SDS011;32023;44.444;26.006;2023-05-10T08:40:26;7.03;;;3.00;;
46290;SDS011;32023;44.444;26.006;2023-05-10T08:43:20;4.93;;;2.90;;
46290;SDS011;32023;44.444;26.006;2023-05-10T08:45:50;4.03;;;2.92;;
46290;SDS011;32023;44.444;26.006;2023-05-10T08:48:27;4.78;;;2.70;;
46290;SDS011;32023;44.444;26.006;2023-05-10T08:51:06;6.22;;;3.17;;
46290;SDS011;32023;44.444;26.006;2023-05-10T08:53:58;6.82;;;2.90;;
46290;SDS011;32023;44.444;26.006;2023-05-10T08:59:09;7.72;;;2.95;;
46290;SDS011;32023;44.444;26.006;2023-05-10T09:02:20;7.93;;;3.00;;
46290;SDS011;32023;44.444;26.006;2023-05-10T09:08:01;8.57;;;2.60;;
46290;SDS011;32023;44.444;26.006;2023-05-10T09:10:40;10.00;;;2.10;;
46290;SDS011;32023;44.444;26.006;2023-05-10T09:21:56;7.35;;;2.78;;
46290;SDS011;32023;44.444;26.006;2023-05-10T09:24:32;4.65;;;2.47;;
46290;SDS011;32023;44.444;26.006;2023-05-10T09:27:01;11.63;;;2.80;;
46290;SDS011;32023;44.444;26.006;2023-05-10T09:35:24;5.47;;;2.50;;
46290;SDS011;32023;44.444;26.006;2023-05-10T09:38:09;9.07;;;2.80;;
46290;SDS011;32023;44.444;26.006;2023-05-10T09:40:43;8.88;;;2.78;;
46290;SDS011;32023;44.444;26.006;2023-05-10T09:45:45;8.02;;;2.90;;
46290;SDS011;32023;44.444;26.006;2023-05-10T09:48:15;4.03;;;2.60;;
46290;SDS011;32023;44.444;26.006;2023-05-10T09:50:41;3.40;;;2.10;;
46290;SDS011;32023;44.444;26.006;2023-05-10T09:53:08;6.50;;;2.72;;
46290;SDS011;32023;44.444;26.006;2023-05-10T09:55:41;7.38;;;3.15;;
46290;SDS011;32023;44.444;26.006;2023-05-10T09:58:10;7.07;;;2.50;;
46290;SDS011;32023;44.444;26.006;2023-05-10T10:00:40;7.82;;;2.60;;
46290;SDS011;32023;44.444;26.006;2023-05-10T10:03:11;3.67;;;2.60;;
46290;SDS011;32023;44.444;26.006;2023-05-10T10:06:04;2.60;;;1.88;;
46290;SDS011;32023;44.444;26.006;2023-05-10T10:08:34;9.95;;;2.80;;
46290;SDS011;32023;44.444;26.006;2023-05-10T10:11:01;6.63;;;2.33;;
46290;SDS011;32023;44.444;26.006;2023-05-10T10:13:29;6.90;;;2.63;;
46290;SDS011;32023;44.444;26.006;2023-05-10T10:15:57;3.40;;;2.15;;
46290;SDS011;32023;44.444;26.006;2023-05-10T10:18:23;3.42;;;2.20;;
46290;SDS011;32023;44.444;26.006;2023-05-10T10:20:54;4.47;;;2.33;;
46290;SDS011;32023;44.444;26.006;2023-05-10T10:23:21;5.28;;;2.38;;
46290;SDS011;32023;44.444;26.006;2023-05-10T10:25:48;4.30;;;2.42;;
46290;SDS011;32023;44.444;26.006;2023-05-10T10:28:37;6.90;;;2.30;;
46290;SDS011;32023;44.444;26.006;2023-05-10T10:34:05;4.80;;;2.50;;
46290;SDS011;32023;44.444;26.006;2023-05-10T10:36:45;4.75;;;2.83;;
46290;SDS011;32023;44.444;26.006;2023-05-10T10:39:17;6.07;;;2.95;;
46290;SDS011;32023;44.444;26.006;2023-05-10T10:42:08;10.55;;;2.92;;
46290;SDS011;32023;44.444;26.006;2023-05-10T10:44:42;5.10;;;2.55;;
46290;SDS011;32023;44.444;26.006;2023-05-10T10:49:52;10.07;;;3.40;;
46290;SDS011;32023;44.444;26.006;2023-05-10T10:52:35;9.45;;;3.05;;
46290;SDS011;32023;44.444;26.006;2023-05-10T11:13:12;4.30;;;2.78;;
46290;SDS011;32023;44.444;26.006;2023-05-10T11:15:40;6.95;;;3.22;;
46290;SDS011;32023;44.444;26.006;2023-05-10T11:18:18;6.95;;;2.90;;
46290;SDS011;32023;44.444;26.006;2023-05-10T11:20:58;6.03;;;2.75;;
46290;SDS011;32023;44.444;26.006;2023-05-10T11:23:47;8.05;;;2.50;;
46290;SDS011;32023;44.444;26.006;2023-05-10T11:26:34;4.28;;;2.92;;
46290;SDS011;32023;44.444;26.006;2023-05-10T11:29:04;11.18;;;2.80;;
46290;SDS011;32023;44.444;26.006;2023-05-10T11:34:46;5.95;;;3.20;;
46290;SDS011;32023;44.444;26.006;2023-05-10T11:37:18;6.10;;;2.80;;
46290;SDS011;32023;44.444;26.006;2023-05-10T11:39:45;6.05;;;2.80;;
46290;SDS011;32023;44.444;26.006;2023-05-10T11:42:14;11.13;;;3.58;;
46290;SDS011;32023;44.444;26.006;2023-05-10T11:44:50;3.80;;;2.88;;
46290;SDS011;32023;44.444;26.006;2023-05-10T11:47:17;5.00;;;3.38;;
46290;SDS011;32023;44.444;26.006;2023-05-10T11:49:44;3.83;;;3.13;;
46290;SDS011;32023;44.444;26.006;2023-05-10T11:52:13;6.22;;;2.95;;
46290;SDS011;32023;44.444;26.006;2023-05-10T11:57:37;4.65;;;2.70;;
46290;SDS011;32023;44.444;26.006;2023-05-10T12:00:07;5.55;;;2.60;;
46290;SDS011;32023;44.444;26.006;2023-05-10T12:02:41;6.95;;;2.72;;
46290;SDS011;32023;44.444;26.006;2023-05-10T12:05:08;8.65;;;3.08;;
46290;SDS011;32023;44.444;26.006;2023-05-10T12:07:35;6.68;;;2.58;;
46290;SDS011;32023;44.444;26.006;2023-05-10T12:10:12;5.13;;;2.60;;
46290;SDS011;32023;44.444;26.006;2023-05-10T12:12:44;4.95;;;2.40;;
46290;SDS011;32023;44.444;26.006;2023-05-10T12:15:20;8.27;;;3.17;;
46290;SDS011;32023;44.444;26.006;2023-05-10T12:17:51;8.80;;;2.80;;
46290;SDS011;32023;44.444;26.006;2023-05-10T12:22:46;6.47;;;2.78;;
46290;SDS011;32023;44.444;26.006;2023-05-10T12:25:19;5.07;;;2.80;;
46290;SDS011;32023;44.444;26.006;2023-05-10T12:27:50;5.25;;;2.40;;
46290;SDS011;32023;44.444;26.006;2023-05-10T12:30:20;6.40;;;2.40;;
46290;SDS011;32023;44.444;26.006;2023-05-10T12:32:47;5.95;;;2.60;;
46290;SDS011;32023;44.444;26.006;2023-05-10T12:35:30;3.88;;;2.78;;
46290;SDS011;32023;44.444;26.006;2023-05-10T12:37:57;4.60;;;2.30;;
46290;SDS011;32023;44.444;26.006;2023-05-10T12:40:24;4.85;;;3.03;;
46290;SDS011;32023;44.444;26.006;2023-05-10T12:43:01;4.43;;;2.30;;
46290;SDS011;32023;44.444;26.006;2023-05-10T12:45:31;4.78;;;2.78;;
46290;SDS011;32023;44.444;26.006;2023-05-10T12:47:57;4.80;;;2.40;;
46290;SDS011;32023;44.444;26.006;2023-05-10T12:50:25;6.63;;;2.30;;
46290;SDS011;32023;44.444;26.006;2023-05-10T12:52:51;6.85;;;2.35;;
46290;SDS011;32023;44.444;26.006;2023-05-10T12:55:18;4.65;;;2.72;;
46290;SDS011;32023;44.444;26.006;2023-05-10T12:57:44;4.03;;;2.00;;
46290;SDS011;32023;44.444;26.006;2023-05-10T13:00:11;5.95;;;2.95;;
46290;SDS011;32023;44.444;26.006;2023-05-10T13:02:38;4.20;;;2.75;;
46290;SDS011;32023;44.444;26.006;2023-05-10T13:05:07;5.70;;;2.53;;
46290;SDS011;32023;44.444;26.006;2023-05-10T13:07:43;6.07;;;2.40;;
46290;SDS011;32023;44.444;26.006;2023-05-10T13:10:11;8.68;;;2.35;;
46290;SDS011;32023;44.444;26.006;2023-05-10T13:12:38;6.05;;;2.60;;
46290;SDS011;32023;44.444;26.006;2023-05-10T13:15:04;4.13;;;2.63;;
46290;SDS011;32023;44.444;26.006;2023-05-10T13:17:31;8.93;;;2.53;;
46290;SDS011;32023;44.444;26.006;2023-05-10T13:19:58;8.07;;;3.03;;
46290;SDS011;32023;44.444;26.006;2023-05-10T13:22:24;7.35;;;2.30;;
46290;SDS011;32023;44.444;26.006;2023-05-10T13:24:51;8.95;;;5.13;;
46290;SDS011;32023;44.444;26.006;2023-05-10T13:27:17;9.05;;;4.55;;
46290;SDS011;32023;44.444;26.006;2023-05-10T13:29:44;4.00;;;2.50;;
46290;SDS011;32023;44.444;26.006;2023-05-10T13:32:10;14.82;;;6.93;;
46290;SDS011;32023;44.444;26.006;2023-05-10T13:34:47;12.38;;;7.03;;
46290;SDS011;32023;44.444;26.006;2023-05-10T13:37:14;8.27;;;3.28;;
46290;SDS011;32023;44.444;26.006;2023-05-10T13:39:42;7.28;;;3.60;;
46290;SDS011;32023;44.444;26.006;2023-05-10T13:42:09;5.40;;;3.03;;
46290;SDS011;32023;44.444;26.006;2023-05-10T13:44:44;3.72;;;2.42;;
46290;SDS011;32023;44.444;26.006;2023-05-10T13:47:19;6.70;;;2.42;;
46290;SDS011;32023;44.444;26.006;2023-05-10T13:50:00;7.97;;;2.75;;
46290;SDS011;32023;44.444;26.006;2023-05-10T13:52:47;5.72;;;2.67;;
46290;SDS011;32023;44.444;26.006;2023-05-10T13:55:46;10.48;;;2.70;;
46290;SDS011;32023;44.444;26.006;2023-05-10T13:58:32;3.92;;;2.72;;
46290;SDS011;32023;44.444;26.006;2023-05-10T14:01:18;5.57;;;2.85;;
46290;SDS011;32023;44.444;26.006;2023-05-10T14:06:43;3.28;;;2.80;;
46290;SDS011;32023;44.444;26.006;2023-05-10T14:09:12;4.88;;;2.33;;
46290;SDS011;32023;44.444;26.006;2023-05-10T14:11:46;3.58;;;2.50;;
46290;SDS011;32023;44.444;26.006;2023-05-10T14:14:17;4.78;;;2.42;;
46290;SDS011;32023;44.444;26.006;2023-05-10T14:16:52;6.22;;;2.72;;
46290;SDS011;32023;44.444;26.006;2023-05-10T14:19:19;7.88;;;2.38;;
46290;SDS011;32023;44.444;26.006;2023-05-10T14:22:14;6.95;;;2.40;;
46290;SDS011;32023;44.444;26.006;2023-05-10T14:24:40;6.65;;;2.63;;
46290;SDS011;32023;44.444;26.006;2023-05-10T14:27:10;4.25;;;2.40;;
46290;SDS011;32023;44.444;26.006;2023-05-10T14:29:37;8.70;;;2.20;;
46290;SDS011;32023;44.444;26.006;2023-05-10T14:32:03;7.55;;;2.42;;
46290;SDS011;32023;44.444;26.006;2023-05-10T14:34:30;6.25;;;2.63;;
46290;SDS011;32023;44.444;26.006;2023-05-10T14:36:56;6.07;;;2.85;;
46290;SDS011;32023;44.444;26.006;2023-05-10T14:39:23;5.40;;;2.70;;
46290;SDS011;32023;44.444;26.006;2023-05-10T14:41:51;6.72;;;2.42;;
46290;SDS011;32023;44.444;26.006;2023-05-10T14:44:21;4.25;;;2.40;;
46290;SDS011;32023;44.444;26.006;2023-05-10T14:46:50;4.68;;;2.63;;
46290;SDS011;32023;44.444;26.006;2023-05-10T14:49:16;2.47;;;2.08;;
46290;SDS011;32023;44.444;26.006;2023-05-10T14:51:43;4.00;;;2.20;;
46290;SDS011;32023;44.444;26.006;2023-05-10T14:54:10;6.65;;;2.28;;
46290;SDS011;32023;44.444;26.006;2023-05-10T14:56:42;6.90;;;2.30;;
46290;SDS011;32023;44.444;26.006;2023-05-10T14:59:15;5.63;;;2.00;;
46290;SDS011;32023;44.444;26.006;2023-05-10T15:01:42;3.85;;;2.60;;
46290;SDS011;32023;44.444;26.006;2023-05-10T15:04:09;3.80;;;2.20;;
46290;SDS011;32023;44.444;26.006;2023-05-10T15:06:35;3.35;;;2.20;;
46290;SDS011;32023;44.444;26.006;2023-05-10T15:09:02;3.42;;;1.83;;
46290;SDS011;32023;44.444;26.006;2023-05-10T15:11:31;3.95;;;2.40;;
46290;SDS011;32023;44.444;26.006;2023-05-10T15:14:15;3.22;;;2.15;;
46290;SDS011;32023;44.444;26.006;2023-05-10T15:16:41;5.25;;;1.98;;
46290;SDS011;32023;44.444;26.006;2023-05-10T15:19:08;4.78;;;2.28;;
46290;SDS011;32023;44.444;26.006;2023-05-10T15:21:34;6.07;;;2.28;;
46290;SDS011;32023;44.444;26.006;2023-05-10T15:24:07;7.10;;;1.92;;
46290;SDS011;32023;44.444;26.006;2023-05-10T15:26:51;4.13;;;2.13;;
46290;SDS011;32023;44.444;26.006;2023-05-10T15:29:18;5.07;;;2.00;;
46290;SDS011;32023;44.444;26.006;2023-05-10T15:31:49;2.63;;;1.83;;
46290;SDS011;32023;44.444;26.006;2023-05-10T15:34:16;5.15;;;2.22;;
46290;SDS011;32023;44.444;26.006;2023-05-10T15:36:43;5.07;;;2.10;;
46290;SDS011;32023;44.444;26.006;2023-05-10T15:39:12;6.20;;;2.00;;
46290;SDS011;32023;44.444;26.006;2023-05-10T15:41:41;5.15;;;2.50;;
46290;SDS011;32023;44.444;26.006;2023-05-10T15:44:08;6.35;;;2.47;;
46290;SDS011;32023;44.444;26.006;2023-05-10T15:46:34;3.92;;;2.20;;
46290;SDS011;32023;44.444;26.006;2023-05-10T15:49:02;6.78;;;2.00;;
46290;SDS011;32023;44.444;26.006;2023-05-10T15:51:30;4.00;;;1.98;;
46290;SDS011;32023;44.444;26.006;2023-05-10T15:53:57;6.18;;;2.80;;
46290;SDS011;32023;44.444;26.006;2023-05-10T15:56:26;5.07;;;2.40;;
46290;SDS011;32023;44.444;26.006;2023-05-10T15:58:53;2.58;;;1.88;;
46290;SDS011;32023;44.444;26.006;2023-05-10T16:01:19;3.10;;;1.88;;
46290;SDS011;32023;44.444;26.006;2023-05-10T16:03:46;2.53;;;2.30;;
46290;SDS011;32023;44.444;26.006;2023-05-10T16:06:14;6.40;;;2.00;;
46290;SDS011;32023;44.444;26.006;2023-05-10T16:08:51;2.45;;;2.25;;
46290;SDS011;32023;44.444;26.006;2023-05-10T16:11:18;7.28;;;2.55;;
46290;SDS011;32023;44.444;26.006;2023-05-10T16:13:47;5.47;;;2.58;;
46290;SDS011;32023;44.444;26.006;2023-05-10T16:16:14;3.95;;;2.05;;
46290;SDS011;32023;44.444;26.006;2023-05-10T16:18:41;7.05;;;2.20;;
46290;SDS011;32023;44.444;26.006;2023-05-10T16:21:12;4.55;;;2.20;;
46290;SDS011;32023;44.444;26.006;2023-05-10T16:23:42;6.13;;;2.13;;
46290;SDS011;32023;44.444;26.006;2023-05-10T16:26:12;13.43;;;5.18;;
46290;SDS011;32023;44.444;26.006;2023-05-10T16:28:38;9.13;;;4.07;;
46290;SDS011;32023;44.444;26.006;2023-05-10T16:31:05;5.28;;;3.40;;
46290;SDS011;32023;44.444;26.006;2023-05-10T16:33:31;5.32;;;3.35;;
46290;SDS011;32023;44.444;26.006;2023-05-10T16:36:01;6.07;;;2.90;;
46290;SDS011;32023;44.444;26.006;2023-05-10T16:38:30;3.40;;;2.20;;
46290;SDS011;32023;44.444;26.006;2023-05-10T16:40:56;6.68;;;2.63;;
46290;SDS011;32023;44.444;26.006;2023-05-10T16:43:28;5.30;;;2.40;;
46290;SDS011;32023;44.444;26.006;2023-05-10T16:45:56;7.65;;;2.78;;
46290;SDS011;32023;44.444;26.006;2023-05-10T16:48:23;5.30;;;3.22;;
46290;SDS011;32023;44.444;26.006;2023-05-10T16:50:49;5.93;;;2.78;;
46290;SDS011;32023;44.444;26.006;2023-05-10T16:53:16;5.30;;;2.70;;
46290;SDS011;32023;44.444;26.006;2023-05-10T16:55:44;7.63;;;2.67;;
46290;SDS011;32023;44.444;26.006;2023-05-10T16:58:11;6.72;;;3.13;;
46290;SDS011;32023;44.444;26.006;2023-05-10T17:00:37;7.68;;;2.60;;
46290;SDS011;32023;44.444;26.006;2023-05-10T17:03:08;5.93;;;3.10;;
46290;SDS011;32023;44.444;26.006;2023-05-10T17:05:39;4.90;;;2.50;;
46290;SDS011;32023;44.444;26.006;2023-05-10T17:08:07;5.80;;;3.22;;
46290;SDS011;32023;44.444;26.006;2023-05-10T17:10:34;6.75;;;3.15;;
46290;SDS011;32023;44.444;26.006;2023-05-10T17:13:03;11.65;;;3.90;;
46290;SDS011;32023;44.444;26.006;2023-05-10T17:15:30;8.93;;;5.55;;
46290;SDS011;32023;44.444;26.006;2023-05-10T17:18:00;5.50;;;3.53;;
46290;SDS011;32023;44.444;26.006;2023-05-10T17:20:26;15.48;;;7.38;;
46290;SDS011;32023;44.444;26.006;2023-05-10T17:22:53;16.85;;;8.65;;
46290;SDS011;32023;44.444;26.006;2023-05-10T17:25:19;24.10;;;11.93;;
46290;SDS011;32023;44.444;26.006;2023-05-10T17:27:46;6.47;;;4.68;;
46290;SDS011;32023;44.444;26.006;2023-05-10T17:30:13;6.35;;;3.85;;
46290;SDS011;32023;44.444;26.006;2023-05-10T17:32:42;12.98;;;5.15;;
46290;SDS011;32023;44.444;26.006;2023-05-10T17:35:13;8.45;;;4.95;;
46290;SDS011;32023;44.444;26.006;2023-05-10T17:37:40;8.13;;;4.85;;
46290;SDS011;32023;44.444;26.006;2023-05-10T17:40:09;8.93;;;4.47;;
46290;SDS011;32023;44.444;26.006;2023-05-10T17:42:38;8.32;;;4.20;;
46290;SDS011;32023;44.444;26.006;2023-05-10T17:45:05;9.82;;;4.13;;
46290;SDS011;32023;44.444;26.006;2023-05-10T17:47:34;10.65;;;5.25;;
46290;SDS011;32023;44.444;26.006;2023-05-10T17:50:04;11.15;;;5.15;;
46290;SDS011;32023;44.444;26.006;2023-05-10T17:52:32;18.60;;;6.18;;
46290;SDS011;32023;44.444;26.006;2023-05-10T17:54:58;7.97;;;5.20;;
46290;SDS011;32023;44.444;26.006;2023-05-10T17:57:25;11.10;;;5.20;;
46290;SDS011;32023;44.444;26.006;2023-05-10T17:59:58;7.43;;;4.20;;
46290;SDS011;32023;44.444;26.006;2023-05-10T18:02:26;8.80;;;3.63;;
46290;SDS011;32023;44.444;26.006;2023-05-10T18:04:52;7.97;;;3.45;;
46290;SDS011;32023;44.444;26.006;2023-05-10T18:10:00;8.40;;;3.95;;